Time;durP1;ratioP1;P1;durP2;ratioP2;P2;SDS_P1;SDS_P2;PMS_P1;PMS_P2;Temp;Humidity;BMP_temperature;BMP_pressure;BME280_temperature;BME280_humidity;BME280_pressure;Samples;Min_cycle;Max_cycle;Signal;HPM_P1;HPM_P2
2024/01/24 00:01:18;;;;;;;0.85;0.73;;;;;;;11.50;100.00;101178.13;5010874;28;20129;-80
2024/01/24 00:03:46;;;;;;;0.70;0.70;;;;;;;11.55;100.00;101198.16;4988214;28;20058;-81
2024/01/24 00:06:13;;;;;;;0.88;0.77;;;;;;;11.56;100.00;101184.38;4986547;28;20078;-80
2024/01/24 00:08:41;;;;;;;0.77;0.77;;;;;;;11.57;100.00;101185.88;4983184;28;20556;-79
2024/01/24 00:11:08;;;;;;;1.10;1.00;;;;;;;11.59;100.00;101201.44;4999936;28;20074;-79
2024/01/24 00:13:34;;;;;;;4.18;1.20;;;;;;;11.58;100.00;101178.63;5000452;28;20046;-80
2024/01/24 00:16:02;;;;;;;0.90;0.73;;;;;;;11.58;100.00;101194.63;4998367;28;20506;-79
2024/01/24 00:18:29;;;;;;;1.05;0.95;;;;;;;11.55;100.00;101160.81;5001316;28;20038;-81
2024/01/24 00:20:59;;;;;;;1.08;0.93;;;;;;;11.54;100.00;101167.34;4986223;28;20051;-79
2024/01/24 00:23:25;;;;;;;1.25;0.88;;;;;;;11.52;100.00;101177.69;5004249;28;20058;-79
2024/01/24 00:25:52;;;;;;;1.25;0.63;;;;;;;11.51;100.00;101190.28;5002906;28;20110;-80
2024/01/24 00:28:21;;;;;;;1.05;1.05;;;;;;;11.49;100.00;101181.97;5003423;28;20074;-79
2024/01/24 00:30:48;;;;;;;1.83;0.98;;;;;;;11.46;100.00;101204.16;4997070;28;20054;-76
2024/01/24 00:33:15;;;;;;;1.58;0.90;;;;;;;11.43;100.00;101201.63;4995028;28;20046;-76
2024/01/24 00:35:42;;;;;;;1.45;0.98;;;;;;;11.42;100.00;101202.78;4978295;28;20047;-76
2024/01/24 00:38:08;;;;;;;1.80;0.80;;;;;;;11.38;100.00;101194.16;4995448;28;20042;-76
2024/01/24 00:40:35;;;;;;;3.03;1.08;;;;;;;11.36;100.00;101210.59;4977109;28;20057;-76
2024/01/24 00:43:01;;;;;;;0.95;0.90;;;;;;;11.32;100.00;101202.72;4995402;28;20043;-76
2024/01/24 00:45:28;;;;;;;1.25;0.90;;;;;;;11.31;100.00;101205.81;4995194;28;20057;-76
2024/01/24 00:47:55;;;;;;;3.30;0.95;;;;;;;11.29;100.00;101198.25;4995203;28;20050;-75
2024/01/24 00:50:21;;;;;;;0.90;0.90;;;;;;;11.27;100.00;101199.84;4994527;28;20055;-75
2024/01/24 00:52:51;;;;;;;0.80;0.80;;;;;;;11.24;100.00;101206.78;4995619;28;20053;-75
2024/01/24 00:55:18;;;;;;;0.70;0.70;;;;;;;11.23;100.00;101210.63;4995679;28;20529;-76
2024/01/24 00:57:45;;;;;;;1.92;0.90;;;;;;;11.21;100.00;101228.22;4995050;28;20138;-76
2024/01/24 01:00:12;;;;;;;2.17;1.10;;;;;;;11.20;100.00;101226.75;4993711;28;20047;-75
2024/01/24 01:02:39;;;;;;;1.60;0.88;;;;;;;11.17;100.00;101225.72;4995895;28;20051;-75
2024/01/24 01:05:07;;;;;;;0.80;0.80;;;;;;;11.15;100.00;101206.75;4978382;28;20121;-75
2024/01/24 01:07:33;;;;;;;1.05;0.95;;;;;;;11.14;100.00;101207.91;4994595;28;20051;-75
2024/01/24 01:10:00;;;;;;;1.30;0.90;;;;;;;11.14;100.00;101201.84;4995621;28;20062;-75
2024/01/24 01:12:26;;;;;;;1.48;0.80;;;;;;;11.13;100.00;101200.34;4995348;28;20086;-76
2024/01/24 01:14:53;;;;;;;1.13;0.93;;;;;;;11.12;100.00;101196.19;4995225;28;20533;-75
2024/01/24 01:17:20;;;;;;;1.40;0.85;;;;;;;11.10;100.00;101191.31;4994592;28;20066;-76
2024/01/24 01:19:47;;;;;;;1.42;0.88;;;;;;;11.09;100.00;101197.81;4978407;28;20482;-75
2024/01/24 01:22:13;;;;;;;1.50;0.85;;;;;;;11.08;100.00;101214.22;4995491;28;20042;-76
2024/01/24 01:24:40;;;;;;;1.23;0.52;;;;;;;11.07;100.00;101204.75;4994910;28;20099;-76
2024/01/24 01:27:08;;;;;;;0.68;0.65;;;;;;;11.05;100.00;101207.09;4995544;28;20069;-76
2024/01/24 01:29:34;;;;;;;0.65;0.65;;;;;;;11.03;100.00;101218.19;4994314;28;20585;-75
2024/01/24 01:32:01;;;;;;;0.70;0.70;;;;;;;11.02;100.00;101228.09;4994656;28;20038;-76
2024/01/24 01:34:28;;;;;;;1.38;0.60;;;;;;;11.01;100.00;101210.63;4994462;28;20074;-75
2024/01/24 01:36:54;;;;;;;0.55;0.55;;;;;;;11.00;100.00;101203.78;4994392;28;20039;-75
2024/01/24 01:39:21;;;;;;;1.88;0.50;;;;;;;10.98;100.00;101195.50;4993943;28;20196;-75
2024/01/24 01:41:48;;;;;;;1.15;0.80;;;;;;;10.97;100.00;101182.59;4995142;28;20109;-75
2024/01/24 01:44:15;;;;;;;0.65;0.65;;;;;;;10.96;100.00;101205.09;4994254;28;20043;-75
2024/01/24 01:46:45;;;;;;;0.65;0.60;;;;;;;10.95;100.00;101175.03;4993902;28;20054;-75
2024/01/24 01:49:12;;;;;;;0.68;0.68;;;;;;;10.97;100.00;101196.66;4993853;28;20087;-75
2024/01/24 01:51:39;;;;;;;0.68;0.60;;;;;;;10.97;100.00;101187.91;4994470;28;20054;-75
2024/01/24 01:54:08;;;;;;;0.60;0.60;;;;;;;10.96;100.00;101183.78;4993874;28;20047;-75
2024/01/24 01:56:35;;;;;;;1.25;0.70;;;;;;;10.95;100.00;101172.38;4993874;28;20027;-75
2024/01/24 01:59:02;;;;;;;0.57;0.57;;;;;;;10.96;100.00;101173.13;4993899;28;20430;-75
2024/01/24 02:01:29;;;;;;;0.65;0.65;;;;;;;10.96;100.00;101181.84;4993377;28;20486;-75
2024/01/24 02:03:55;;;;;;;1.00;0.80;;;;;;;10.98;100.00;101176.09;4994010;28;20518;-75
2024/01/24 02:06:22;;;;;;;0.73;0.70;;;;;;;10.99;100.00;101193.56;4993212;28;20078;-75
2024/01/24 02:08:49;;;;;;;0.80;0.75;;;;;;;11.00;100.00;101182.47;4994089;28;20055;-75
2024/01/24 02:11:17;;;;;;;3.55;0.95;;;;;;;11.02;100.00;101182.06;4989687;28;20045;-76
2024/01/24 02:13:44;;;;;;;0.82;0.82;;;;;;;11.01;100.00;101168.00;4976554;28;20098;-76
2024/01/24 02:16:13;;;;;;;1.05;0.88;;;;;;;11.03;100.00;101165.63;4993120;28;20053;-75
2024/01/24 02:18:44;;;;;;;2.25;1.10;;;;;;;11.05;100.00;101173.19;4993230;28;20102;-76
2024/01/24 02:21:11;;;;;;;1.10;0.80;;;;;;;11.06;100.00;101200.59;4993224;28;20502;-76
2024/01/24 02:23:40;;;;;;;2.85;0.98;;;;;;;11.05;100.00;101159.13;4993753;28;20541;-75
2024/01/24 02:26:06;;;;;;;1.10;0.95;;;;;;;11.05;100.00;101156.47;4993044;28;20404;-76
2024/01/24 02:28:33;;;;;;;3.08;1.00;;;;;;;11.05;100.00;101178.53;4993539;28;20541;-76
2024/01/24 02:31:00;;;;;;;1.55;1.00;;;;;;;11.07;100.00;101159.44;4976524;28;20549;-76
2024/01/24 02:33:26;;;;;;;1.30;1.08;;;;;;;11.07;100.00;101188.75;4992372;28;20057;-76
2024/01/24 02:35:53;;;;;;;3.97;1.20;;;;;;;11.07;100.00;101181.50;4993780;28;20106;-76
2024/01/24 02:38:20;;;;;;;2.85;1.00;;;;;;;11.09;100.00;101189.06;4994035;28;20047;-76
2024/01/24 02:40:46;;;;;;;3.38;1.20;;;;;;;11.10;100.00;101171.91;4993612;28;20121;-75
2024/01/24 02:43:13;;;;;;;2.30;1.20;;;;;;;11.11;100.00;101178.72;4992839;28;20054;-75
2024/01/24 02:45:40;;;;;;;3.03;1.20;;;;;;;11.11;100.00;101205.38;4976446;28;20050;-75
2024/01/24 02:48:06;;;;;;;1.98;1.20;;;;;;;11.09;100.00;101211.13;4993770;28;20130;-75
2024/01/24 02:50:33;;;;;;;7.70;0.95;;;;;;;11.10;100.00;101217.19;4993196;28;20053;-75
2024/01/24 02:53:00;;;;;;;2.97;1.20;;;;;;;11.08;100.00;101219.56;4992905;28;20130;-75
2024/01/24 02:55:29;;;;;;;2.67;1.20;;;;;;;11.07;100.00;101234.03;4993257;28;20054;-75
2024/01/24 02:57:55;;;;;;;2.60;1.13;;;;;;;11.07;100.00;101240.13;4993393;28;20561;-75
2024/01/24 03:00:22;;;;;;;4.03;1.10;;;;;;;11.03;100.00;101223.50;4989706;28;20207;-75
2024/01/24 03:02:48;;;;;;;6.22;1.25;;;;;;;11.02;100.00;101220.09;4993150;28;20129;-75
2024/01/24 03:05:15;;;;;;;6.00;1.20;;;;;;;11.01;100.00;101239.91;4992935;28;20583;-75
2024/01/24 03:07:42;;;;;;;5.20;1.13;;;;;;;11.05;100.00;101207.84;4993264;28;20133;-75
2024/01/24 03:10:08;;;;;;;3.72;1.23;;;;;;;11.07;100.00;101250.03;4993152;28;20054;-75
2024/01/24 03:12:35;;;;;;;3.53;1.50;;;;;;;11.08;100.00;101302.88;4992690;28;20051;-75
2024/01/24 03:15:02;;;;;;;5.13;1.00;;;;;;;11.12;100.00;101258.22;4993049;28;20055;-76
2024/01/24 03:17:29;;;;;;;2.40;0.93;;;;;;;11.12;100.00;101242.25;4992984;28;20047;-76
2024/01/24 03:19:55;;;;;;;4.57;1.25;;;;;;;11.10;100.00;101260.56;4993188;28;20502;-76
2024/01/24 03:22:24;;;;;;;7.38;1.50;;;;;;;11.09;100.00;101251.09;4992731;28;20046;-76
2024/01/24 03:24:52;;;;;;;5.15;1.27;;;;;;;11.11;100.00;101256.00;4995364;28;20053;-76
2024/01/24 03:27:19;;;;;;;2.92;0.93;;;;;;;11.10;100.00;101249.91;4996696;28;20047;-76
2024/01/24 03:29:45;;;;;;;4.72;1.33;;;;;;;11.09;100.00;101258.34;4996232;28;20047;-77
2024/01/24 03:32:12;;;;;;;8.38;2.28;;;;;;;11.07;100.00;101253.44;4995559;28;20157;-76
2024/01/24 03:34:38;;;;;;;6.90;1.40;;;;;;;11.05;100.00;101258.44;4995902;28;20883;-76
2024/01/24 03:37:05;;;;;;;4.97;1.40;;;;;;;11.05;100.00;101281.69;4997237;28;20046;-76
2024/01/24 03:39:32;;;;;;;6.90;1.38;;;;;;;11.04;100.00;101243.66;4995984;28;20053;-76
2024/01/24 03:41:58;;;;;;;5.47;1.45;;;;;;;11.00;100.00;101246.41;4996746;28;20054;-76
2024/01/24 03:44:25;;;;;;;10.63;1.52;;;;;;;11.00;100.00;101270.41;4995397;28;20054;-76
2024/01/24 03:46:52;;;;;;;5.60;1.60;;;;;;;11.00;100.00;101272.31;4996808;28;20090;-76
2024/01/24 03:49:21;;;;;;;9.77;1.60;;;;;;;10.98;100.00;101267.41;4995992;28;20049;-76
2024/01/24 03:51:48;;;;;;;6.40;1.88;;;;;;;10.96;100.00;101255.69;4996333;28;20070;-76
2024/01/24 03:54:15;;;;;;;4.80;1.35;;;;;;;10.94;100.00;101258.03;4995925;28;20047;-76
2024/01/24 03:56:42;;;;;;;9.55;2.00;;;;;;;10.91;100.00;101264.97;4995398;28;20058;-77
2024/01/24 03:59:08;;;;;;;11.65;1.60;;;;;;;10.88;100.00;101251.75;4996389;28;20051;-77
2024/01/24 04:01:35;;;;;;;11.68;2.65;;;;;;;10.86;100.00;101240.78;4995266;28;20503;-77
2024/01/24 04:04:01;;;;;;;6.85;2.00;;;;;;;10.83;100.00;101250.38;4996627;28;20039;-77
2024/01/24 04:06:28;;;;;;;11.25;2.38;;;;;;;10.77;100.00;101236.13;4991982;28;20134;-77
2024/01/24 04:08:55;;;;;;;13.13;1.67;;;;;;;10.74;100.00;101233.59;4996100;28;20055;-77
2024/01/24 04:11:21;;;;;;;12.88;2.55;;;;;;;10.69;100.00;101232.94;4995039;28;20042;-76
2024/01/24 04:14:01;;;;;;;18.83;2.30;;;;;;;10.63;100.00;101233.91;4995971;28;20105;-78
2024/01/24 04:16:28;;;;;;;14.60;2.63;;;;;;;10.60;100.00;101262.13;4995912;28;20086;-77
2024/01/24 04:18:55;;;;;;;13.35;2.28;;;;;;;10.55;100.00;101253.91;4997306;28;20130;-76
2024/01/24 04:21:21;;;;;;;10.70;2.38;;;;;;;10.50;100.00;101255.19;4995087;28;20080;-76
2024/01/24 04:23:48;;;;;;;8.68;2.67;;;;;;;10.46;100.00;101251.88;4995425;28;20479;-76
2024/01/24 04:26:15;;;;;;;9.63;2.17;;;;;;;10.45;100.00;101249.66;4995127;28;20053;-76
2024/01/24 04:28:42;;;;;;;12.55;2.33;;;;;;;10.45;100.00;101252.31;4995366;28;20050;-76
2024/01/24 04:31:09;;;;;;;15.68;3.35;;;;;;;10.38;100.00;101261.28;4995702;28;20121;-76
2024/01/24 04:33:35;;;;;;;13.90;3.42;;;;;;;10.34;100.00;101265.97;4994348;28;20050;-76
2024/01/24 04:36:02;;;;;;;16.30;3.20;;;;;;;10.32;100.00;101262.97;4991903;28;20126;-76
2024/01/24 04:38:29;;;;;;;12.95;2.92;;;;;;;10.32;100.00;101308.22;4994319;28;20541;-76
2024/01/24 04:40:55;;;;;;;25.23;4.85;;;;;;;10.33;100.00;101277.78;4995149;28;20594;-76
2024/01/24 04:43:22;;;;;;;17.35;3.17;;;;;;;10.32;100.00;101305.56;4995316;28;20122;-76
2024/01/24 04:45:48;;;;;;;16.90;3.30;;;;;;;10.29;100.00;101298.41;4995719;28;20053;-76
2024/01/24 04:48:15;;;;;;;15.20;3.65;;;;;;;10.28;100.00;101310.22;4994488;28;20499;-76
2024/01/24 04:50:42;;;;;;;20.90;3.53;;;;;;;10.26;100.00;101321.28;4993431;28;20054;-76
2024/01/24 04:53:08;;;;;;;17.35;3.63;;;;;;;10.25;100.00;101343.00;4996149;28;20611;-77
2024/01/24 04:55:35;;;;;;;18.15;3.42;;;;;;;10.24;100.00;101336.94;4995308;28;20051;-77
2024/01/24 04:58:02;;;;;;;20.63;4.22;;;;;;;10.22;100.00;101347.25;4994412;28;20499;-76
2024/01/24 05:00:29;;;;;;;21.23;3.83;;;;;;;10.22;100.00;101343.84;4994987;28;20489;-76
2024/01/24 05:02:55;;;;;;;20.20;3.67;;;;;;;10.17;100.00;101354.97;4994758;28;20047;-76
2024/01/24 05:05:22;;;;;;;22.58;3.88;;;;;;;10.17;100.00;101360.28;4994115;28;20047;-76
2024/01/24 05:07:49;;;;;;;16.13;3.92;;;;;;;10.17;100.00;101349.66;4994674;28;20047;-77
2024/01/24 05:10:16;;;;;;;21.80;4.13;;;;;;;10.14;100.00;101359.22;4994826;28;20058;-76
2024/01/24 05:12:42;;;;;;;20.08;3.67;;;;;;;10.11;100.00;101372.59;4994454;28;20046;-76
2024/01/24 05:15:10;;;;;;;18.75;3.47;;;;;;;10.07;100.00;101348.00;4994869;28;20506;-77
2024/01/24 05:17:39;;;;;;;19.15;3.50;;;;;;;10.09;100.00;101364.28;4991078;28;20085;-76
2024/01/24 05:20:08;;;;;;;21.45;4.65;;;;;;;10.09;100.00;101366.97;4991765;28;20730;-77
2024/01/24 05:22:34;;;;;;;26.73;4.30;;;;;;;10.06;99.40;101367.78;4994107;28;20073;-76
2024/01/24 05:25:01;;;;;;;24.38;3.83;;;;;;;10.02;99.78;101359.91;4994857;28;20047;-76
2024/01/24 05:27:28;;;;;;;21.55;3.67;;;;;;;10.01;99.90;101369.06;4994265;28;20533;-76
2024/01/24 05:29:55;;;;;;;20.48;4.15;;;;;;;10.02;99.55;101373.94;4994753;28;20054;-76
2024/01/24 05:32:21;;;;;;;23.20;4.05;;;;;;;10.02;98.91;101376.63;4993458;28;20050;-76
2024/01/24 05:34:49;;;;;;;22.15;4.78;;;;;;;9.99;99.22;101366.09;4995093;28;20039;-76
2024/01/24 05:37:16;;;;;;;23.88;3.70;;;;;;;10.01;99.24;101377.78;4991451;28;20070;-76
2024/01/24 05:39:42;;;;;;;25.80;4.30;;;;;;;10.04;98.23;101400.13;4994363;28;20053;-77
2024/01/24 05:42:09;;;;;;;20.35;4.10;;;;;;;10.07;97.87;101403.88;4991552;28;20043;-77
2024/01/24 05:44:36;;;;;;;27.25;4.30;;;;;;;10.08;97.17;101419.41;4996008;28;20074;-80
2024/01/24 05:47:02;;;;;;;23.92;4.30;;;;;;;10.04;96.87;101406.22;4981037;28;20047;-78
2024/01/24 05:49:29;;;;;;;22.88;4.70;;;;;;;10.04;95.94;101414.19;4997956;28;20137;-78
2024/01/24 05:51:56;;;;;;;23.75;4.35;;;;;;;10.00;95.82;101423.41;5000129;28;20058;-77
2024/01/24 05:54:22;;;;;;;28.02;4.13;;;;;;;9.95;95.10;101415.97;4994914;28;20075;-77
2024/01/24 05:56:49;;;;;;;24.10;4.47;;;;;;;9.91;95.53;101417.97;4994756;28;20445;-78
2024/01/24 05:59:16;;;;;;;24.55;4.53;;;;;;;9.89;94.91;101439.66;4994177;28;20049;-75
2024/01/24 06:01:43;;;;;;;26.67;4.93;;;;;;;9.89;95.87;101444.22;4994354;28;20514;-75
2024/01/24 06:04:10;;;;;;;31.27;4.57;;;;;;;9.88;96.22;101456.78;4994130;28;20536;-76
2024/01/24 06:06:36;;;;;;;26.13;4.97;;;;;;;9.84;95.68;101442.06;4993809;28;20100;-76
2024/01/24 06:09:03;;;;;;;24.25;4.75;;;;;;;9.85;95.38;101454.94;4993284;28;20079;-77
2024/01/24 06:11:30;;;;;;;30.90;4.63;;;;;;;9.85;95.72;101465.59;4993630;28;21422;-77
2024/01/24 06:13:56;;;;;;;30.02;5.20;;;;;;;9.84;94.16;101447.38;4995878;28;20039;-78
2024/01/24 06:16:23;;;;;;;24.63;4.95;;;;;;;9.87;93.46;101473.16;4996041;28;20049;-78
2024/01/24 06:18:50;;;;;;;25.70;4.80;;;;;;;9.84;93.53;101472.06;4997083;28;20043;-78
2024/01/24 06:21:16;;;;;;;24.75;5.20;;;;;;;9.82;92.44;101495.66;4996622;28;20130;-78
2024/01/24 06:23:43;;;;;;;42.03;5.32;;;;;;;9.82;92.34;101508.22;4987513;28;20039;-78
2024/01/24 06:26:09;;;;;;;25.30;4.15;;;;;;;9.79;91.83;101491.19;4995349;28;20043;-78
2024/01/24 06:28:36;;;;;;;25.35;5.32;;;;;;;9.73;93.04;101492.09;4995565;28;20521;-78
2024/01/24 06:31:03;;;;;;;33.00;5.55;;;;;;;9.69;93.71;101500.13;4996508;28;20073;-79
2024/01/24 06:33:30;;;;;;;28.20;5.28;;;;;;;9.63;94.15;101493.81;4977818;28;20053;-77
2024/01/24 06:35:57;;;;;;;31.88;5.68;;;;;;;9.58;94.78;101504.97;4995893;28;20046;-78
2024/01/24 06:38:24;;;;;;;24.88;4.65;;;;;;;9.55;94.47;101505.78;4994884;28;20046;-77
2024/01/24 06:40:51;;;;;;;30.15;5.65;;;;;;;9.54;95.07;101522.91;4995626;28;20901;-78
2024/01/24 06:43:18;;;;;;;29.90;4.95;;;;;;;9.49;94.82;101537.41;4994269;28;20051;-75
2024/01/24 06:45:45;;;;;;;30.95;5.65;;;;;;;9.47;94.74;101547.72;4992668;28;20126;-77
2024/01/24 06:48:12;;;;;;;29.00;5.15;;;;;;;9.44;94.19;101553.84;4994121;28;20043;-76
2024/01/24 06:50:38;;;;;;;25.63;4.60;;;;;;;9.42;93.57;101556.16;4993341;28;20054;-79
2024/01/24 06:53:09;;;;;;;28.15;5.30;;;;;;;9.44;93.20;101553.09;4993408;28;20601;-76
2024/01/24 06:55:36;;;;;;;29.47;5.33;;;;;;;9.42;92.27;101566.06;4992862;28;20047;-76
2024/01/24 06:58:03;;;;;;;23.42;5.07;;;;;;;9.38;91.48;101547.53;4994079;28;20051;-76
2024/01/24 07:00:33;;;;;;;27.35;4.75;;;;;;;9.39;91.14;101564.22;4992563;28;20481;-77
2024/01/24 07:03:00;;;;;;;32.03;5.45;;;;;;;9.37;91.50;101572.59;4995278;28;20065;-77
2024/01/24 07:05:27;;;;;;;26.08;4.72;;;;;;;9.35;90.56;101561.63;4997684;28;20047;-78
2024/01/24 07:07:56;;;;;;;26.40;5.43;;;;;;;9.33;89.58;101554.06;4998809;28;20043;-77
2024/01/24 07:10:23;;;;;;;30.10;5.03;;;;;;;9.32;89.50;101557.13;4989286;28;20055;-77
2024/01/24 07:12:49;;;;;;;25.30;4.72;;;;;;;9.31;89.66;101571.56;4990007;28;20473;-77
2024/01/24 07:15:17;;;;;;;35.40;5.28;;;;;;;9.26;89.17;101558.75;4994850;28;20506;-77
2024/01/24 07:17:44;;;;;;;32.42;5.45;;;;;;;9.22;88.96;101561.50;4994070;28;20050;-76
2024/01/24 07:20:12;;;;;;;31.00;4.68;;;;;;;9.20;89.27;101594.94;4994726;28;20058;-77
2024/01/24 07:22:41;;;;;;;32.33;5.40;;;;;;;9.20;89.35;101573.69;4994106;28;20072;-77
2024/01/24 07:25:08;;;;;;;24.70;5.40;;;;;;;9.18;88.68;101594.63;4994143;28;20122;-76
2024/01/24 07:27:35;;;;;;;30.15;4.63;;;;;;;9.17;89.27;101596.53;4992473;28;20043;-77
2024/01/24 07:30:05;;;;;;;29.67;6.03;;;;;;;9.10;88.76;101586.03;4993773;28;20494;-76
2024/01/24 07:32:32;;;;;;;25.42;5.38;;;;;;;9.09;88.99;101605.78;4992691;28;20055;-77
2024/01/24 07:34:59;;;;;;;28.98;5.05;;;;;;;9.07;88.27;101612.66;4993100;28;20046;-77
2024/01/24 07:37:26;;;;;;;33.70;5.45;;;;;;;9.06;87.98;101616.47;4994410;28;20053;-77
2024/01/24 07:39:53;;;;;;;32.35;5.65;;;;;;;9.01;87.95;101585.81;4993917;28;20046;-77
2024/01/24 07:42:20;;;;;;;34.72;5.50;;;;;;;8.98;87.72;101605.97;4994718;28;20054;-76
2024/01/24 07:44:47;;;;;;;28.23;4.80;;;;;;;8.98;88.43;101610.53;4994348;28;20133;-78
2024/01/24 07:47:18;;;;;;;28.40;4.88;;;;;;;8.98;88.38;101624.56;4995631;28;20074;-78
2024/01/24 07:49:45;;;;;;;33.13;4.83;;;;;;;9.00;87.69;101646.16;4994304;28;20047;-77
2024/01/24 07:52:12;;;;;;;43.60;5.25;;;;;;;9.00;87.58;101656.03;4994040;28;21006;-77
2024/01/24 07:54:53;;;;;;;32.08;5.68;;;;;;;8.99;88.24;101646.56;4993874;28;20824;-77
2024/01/24 07:57:26;;;;;;;26.80;5.00;;;;;;;9.00;87.12;101661.34;4992866;28;20051;-78
2024/01/24 07:59:53;;;;;;;32.75;5.78;;;;;;;9.00;86.89;101662.09;4995087;28;20047;-77
2024/01/24 08:02:20;;;;;;;26.30;5.13;;;;;;;9.01;86.81;101673.47;4994838;28;20047;-77
2024/01/24 08:04:47;;;;;;;37.38;5.72;;;;;;;9.01;86.32;101676.88;4995229;28;20038;-77
2024/01/24 08:07:14;;;;;;;35.17;5.32;;;;;;;8.99;86.27;101679.19;4976278;28;20514;-78
2024/01/24 08:09:40;;;;;;;24.40;5.10;;;;;;;8.98;85.94;101680.34;4995068;28;20055;-78
2024/01/24 08:12:08;;;;;;;33.85;5.80;;;;;;;9.00;85.81;101683.34;4998759;28;20051;-78
2024/01/24 08:14:34;;;;;;;28.30;5.32;;;;;;;9.07;85.92;101685.13;4998491;28;20047;-78
2024/01/24 08:17:05;;;;;;;26.30;4.57;;;;;;;9.06;84.87;101674.91;4998059;28;20043;-77
2024/01/24 08:19:32;;;;;;;30.05;4.97;;;;;;;9.06;85.19;101682.88;4998106;28;20050;-77
2024/01/24 08:21:59;;;;;;;34.10;5.35;;;;;;;9.07;84.82;101711.69;4993845;28;20097;-78
2024/01/24 08:24:26;;;;;;;34.95;5.53;;;;;;;9.06;85.08;101691.59;4995773;28;20051;-77
2024/01/24 08:26:56;;;;;;;38.50;4.95;;;;;;;9.06;84.78;101688.94;4996856;28;20430;-79
2024/01/24 08:29:25;;;;;;;35.72;4.95;;;;;;;9.07;84.28;101706.38;4995924;28;20050;-77
2024/01/24 08:32:04;;;;;;;27.05;4.72;;;;;;;9.07;84.96;101695.00;4993869;28;20055;-77
2024/01/24 08:34:31;;;;;;;29.85;5.43;;;;;;;9.10;84.29;101707.47;4993389;28;20187;-77
2024/01/24 08:36:57;;;;;;;31.98;4.60;;;;;;;9.14;84.50;101703.59;4997271;28;20054;-78
2024/01/24 08:39:24;;;;;;;39.42;5.50;;;;;;;9.15;84.56;101728.25;4995961;28;20059;-78
2024/01/24 08:41:51;;;;;;;33.95;6.00;;;;;;;9.15;84.18;101734.31;4997931;28;20050;-77
2024/01/24 08:44:18;;;;;;;32.08;4.88;;;;;;;9.16;84.09;101738.47;4997459;28;20101;-77
2024/01/24 08:46:45;;;;;;;28.80;5.43;;;;;;;9.15;84.29;101739.63;4997808;28;20877;-78
2024/01/24 08:49:12;;;;;;;26.63;5.38;;;;;;;9.14;84.35;101722.19;4996963;28;20070;-77
2024/01/24 08:51:39;;;;;;;40.80;5.20;;;;;;;9.16;84.81;101719.88;4995549;28;20057;-77
2024/01/24 08:54:06;;;;;;;25.75;4.50;;;;;;;9.17;83.08;101715.31;4997119;28;20051;-77
2024/01/24 08:56:33;;;;;;;36.45;5.55;;;;;;;9.21;83.67;101735.34;4980244;28;20585;-78
2024/01/24 08:59:00;;;;;;;30.90;6.30;;;;;;;9.22;83.65;101739.50;4979501;28;20051;-77
2024/01/24 09:01:27;;;;;;;28.17;5.72;;;;;;;9.24;84.05;101747.06;4995413;28;20841;-77
2024/01/24 09:03:58;;;;;;;23.73;5.43;;;;;;;9.25;84.22;101772.47;4995695;28;20078;-77
2024/01/24 09:06:25;;;;;;;27.88;4.45;;;;;;;9.29;83.35;101816.44;4995916;28;20043;-78
2024/01/24 09:08:52;;;;;;;22.92;4.05;;;;;;;9.33;83.71;101803.84;4996290;28;20055;-77
2024/01/24 09:11:21;;;;;;;27.52;4.88;;;;;;;9.35;82.74;101796.22;4996455;28;20173;-78
2024/01/24 09:13:51;;;;;;;21.90;4.32;;;;;;;9.38;83.57;101784.03;4996920;28;20047;-78
2024/01/24 09:16:19;;;;;;;25.95;4.97;;;;;;;9.38;83.45;101785.94;4980679;28;20047;-80
2024/01/24 09:18:46;;;;;;;31.40;4.95;;;;;;;9.41;82.98;101783.22;4999836;28;20510;-80
2024/01/24 09:21:13;;;;;;;24.50;4.85;;;;;;;9.41;82.90;101793.84;4996394;28;20067;-79
2024/01/24 09:23:39;;;;;;;29.27;4.78;;;;;;;9.41;82.78;101796.50;4996564;28;20051;-77
2024/01/24 09:26:06;;;;;;;37.92;6.03;;;;;;;9.43;82.72;101812.81;4996393;28;20071;-79
2024/01/24 09:28:33;;;;;;;27.92;4.53;;;;;;;9.43;83.14;101812.81;5000639;28;20111;-79
2024/01/24 09:31:00;;;;;;;36.80;5.50;;;;;;;9.46;83.07;101827.94;4999877;28;20111;-82
2024/01/24 09:33:26;;;;;;;22.92;4.35;;;;;;;9.50;82.67;101849.16;4996168;28;20047;-80
2024/01/24 09:35:53;;;;;;;23.60;4.85;;;;;;;9.53;83.27;101840.38;4996838;28;20039;-80
2024/01/24 09:38:20;;;;;;;28.60;4.93;;;;;;;9.56;82.47;101848.28;4994454;28;20054;-77
2024/01/24 09:40:46;;;;;;;26.90;4.75;;;;;;;9.58;81.92;101823.97;4994383;28;20051;-77
2024/01/24 09:43:14;;;;;;;34.45;5.97;;;;;;;9.61;81.69;101845.16;4994506;28;20054;-76
2024/01/24 09:45:42;;;;;;;22.02;4.60;;;;;;;9.62;82.08;101859.94;4994607;28;20053;-75
2024/01/24 09:48:11;;;;;;;25.38;5.22;;;;;;;9.65;82.23;101855.72;4990399;28;20113;-76
2024/01/24 09:50:38;;;;;;;31.27;4.60;;;;;;;9.68;82.22;101849.59;4993787;28;20051;-76
2024/01/24 09:53:08;;;;;;;32.50;5.10;;;;;;;9.70;82.13;101852.59;4994757;28;20049;-76
2024/01/24 09:55:35;;;;;;;27.13;5.10;;;;;;;9.76;81.73;101852.88;4993955;28;20174;-76
2024/01/24 09:58:02;;;;;;;23.90;4.18;;;;;;;9.80;81.42;101869.53;4976093;28;20215;-75
2024/01/24 10:00:29;;;;;;;26.65;4.18;;;;;;;9.82;81.22;101870.63;4977730;28;20047;-77
2024/01/24 10:02:57;;;;;;;22.77;3.70;;;;;;;9.84;80.67;101868.31;4995581;28;20525;-78
2024/01/24 10:05:25;;;;;;;31.08;5.65;;;;;;;9.85;80.44;101883.13;4994798;28;20059;-77
2024/01/24 10:07:53;;;;;;;21.92;4.22;;;;;;;9.87;80.06;101893.34;4996004;28;20043;-77
2024/01/24 10:10:20;;;;;;;26.40;4.60;;;;;;;9.89;80.12;101881.16;4994319;28;20059;-77
2024/01/24 10:12:47;;;;;;;31.65;5.28;;;;;;;9.93;79.98;101881.09;4994546;28;20051;-77
2024/01/24 10:15:13;;;;;;;23.55;5.07;;;;;;;9.97;79.70;101901.16;4994150;28;20495;-76
2024/01/24 10:17:42;;;;;;;31.42;5.10;;;;;;;10.01;79.74;101925.00;4993111;28;20125;-76
2024/01/24 10:20:11;;;;;;;25.90;4.40;;;;;;;10.06;79.22;101926.47;4994888;28;20047;-78
2024/01/24 10:22:39;;;;;;;28.38;4.95;;;;;;;10.08;79.83;101913.50;4994729;28;20039;-77
2024/01/24 10:25:09;;;;;;;24.70;4.53;;;;;;;10.11;80.00;101929.41;4993836;28;20133;-77
2024/01/24 10:27:40;;;;;;;29.25;4.68;;;;;;;10.11;79.31;101915.34;4993112;28;20138;-77
2024/01/24 10:30:12;;;;;;;26.00;4.53;;;;;;;10.11;79.48;101933.97;4993019;28;20131;-77
2024/01/24 10:32:43;;;;;;;31.75;5.60;;;;;;;10.10;78.88;101933.22;4993880;28;20046;-77
2024/01/24 10:35:09;;;;;;;24.10;4.05;;;;;;;10.10;79.25;101919.16;4996753;28;20070;-77
2024/01/24 10:37:36;;;;;;;23.00;4.30;;;;;;;10.06;79.22;101937.84;4995678;28;20038;-78
2024/01/24 10:40:06;;;;;;;20.65;3.83;;;;;;;10.01;79.61;101944.38;4994460;28;20047;-76
2024/01/24 10:42:39;;;;;;;29.30;5.80;;;;;;;10.00;79.49;101947.44;4996085;28;20047;-78
2024/01/24 10:45:07;;;;;;;22.08;4.88;;;;;;;10.02;79.23;101950.47;4998124;28;20694;-79
2024/01/24 10:47:34;;;;;;;28.27;5.22;;;;;;;10.00;78.62;101944.78;4998801;28;20053;-80
2024/01/24 10:50:03;;;;;;;24.02;4.85;;;;;;;10.03;78.91;101974.00;4999871;28;20046;-78
2024/01/24 10:52:33;;;;;;;29.88;4.55;;;;;;;10.04;79.26;101974.75;4996863;28;20498;-77
2024/01/24 10:55:05;;;;;;;23.98;4.55;;;;;;;10.07;79.59;101971.28;4996297;28;20049;-78
2024/01/24 10:57:33;;;;;;;29.75;5.10;;;;;;;10.07;78.48;101994.47;4994876;28;20130;-76
2024/01/24 11:00:05;;;;;;;31.83;4.47;;;;;;;10.04;78.69;101985.38;4996160;28;20117;-76
2024/01/24 11:02:32;;;;;;;;;;;;;;;10.07;81.36;101994.47;4993744;28;20043;-77
2024/01/24 11:05:03;;;;;;;22.40;4.50;;;;;;;10.08;79.52;102003.97;4992138;28;20387;-78
2024/01/24 11:07:40;;;;;;;30.73;4.80;;;;;;;10.07;79.40;102011.19;4990735;28;20145;-78
2024/01/24 11:10:07;;;;;;;20.25;4.13;;;;;;;10.10;78.88;102013.03;4991190;28;20051;-78
2024/01/24 11:12:36;;;;;;;25.20;4.40;;;;;;;10.13;78.66;102014.91;4990830;28;20054;-81
2024/01/24 11:15:08;;;;;;;21.90;3.97;;;;;;;10.13;78.89;102014.91;4992748;28;20100;-78
2024/01/24 11:17:35;;;;;;;25.83;4.43;;;;;;;10.12;79.22;102015.31;4992038;28;20125;-78
2024/01/24 11:20:06;;;;;;;20.15;5.10;;;;;;;10.11;79.57;102019.13;4993212;28;20042;-78